Kihei, HI (96753)

9:57 AM HST on August 29, 2015 (GMT -1000)
Kihei | | Change Station
CLOSE
Current Station
Personal Weather Station
Location: Kihei, HI
Elevation: 23 ft
Nearby Weather Stations

Elev 23 ft 20.74 °N, 156.46 °W | Updated 29 seconds ago

Scattered Clouds
Scattered Clouds
86.5 °F
Feels Like 96 °F
N
0.0
Wind Variable Wind from WSW
Gusts 1.0 mph

Today
High -- | Low -- °F
--% Chance of Precip.
Yesterday
High -- | Low -- °F
Precip. -- in
6:08 AM 6:44 PM
Full, 100% visible
Pressure 29.93 in
Visibility 10.0 miles
Clouds Scattered Clouds 4500 ft
Heat Index 96 °F
Dew Point 76 °F
Humidity 70%
Rainfall 0.00 in
Snow Depth Not available.
UV 6 out of 12
Pollen Not available.
Air Quality Not available.
Flu Activity Not available.
METAR PHOG 291954Z 03015KT 10SM SCT045 32/21 A2991 RMK AO2 SLP133 T03220211
Pressure 29.93 in
Visibility 10.0 miles
Clouds Scattered Clouds 4500 ft
Heat Index 96 °F
Dew Point 76 °F
Humidity 70%
Rainfall 0.00 in
Snow Depth Not available.
UV 6 out of 12
Pollen Not available.
Air Quality Not available.
Flu Activity Not available.
METAR PHOG 291954Z 03015KT 10SM SCT045 32/21 A2991 RMK AO2 SLP133 T03220211
The busy hurricane season continues as Hurricane Ignacio may threaten The Big Island Monday. Ignacio is expected to strengthen into a Category 2 hurricane later today, before possibly weakening to a Category 1 storm Monday. The most likely scenario is that storm will pass to the north of Hawaii, there is enough difference is guidance to suggest that residents should prepare for the storm.

10-Day Weather Forecast

×

Almanac

Astronomy

Aug. 29, 2015 Rise Set
Actual Time
Civil Twilight
Nautical Twilight
Astronomical Twilight
Moon
Length of Visible Light
Length of Day
Tomorrow will be .
, % of the Moon is Illuminated

Today's Extremes

State Highs State Lows

Community

WunderPhotos

Upload Photos

1,850,786 photos uploaded!

WunderBlogs® & News

Nearby

Air Quality

  Air Quality AQ Index Pollutant
Not available.

Snow Depth

Station Depth Elevation

Earthquake Activity

City Distance Mag. Time & Date
Minimum magnitude displayed is 2.5.

Coastal Water Temperatures

Place Temperature

Stations

Nearby Weather Stations

Station Location Temp. Windchill Dew Point Humidity Wind Precip. Elev Updated Type